Time;durP1;ratioP1;P1;durP2;ratioP2;P2;SDS_P1;SDS_P2;PMS_P1;PMS_P2;Temp;Humidity;BMP_temperature;BMP_pressure;BME280_temperature;BME280_humidity;BME280_pressure;Samples;Min_cycle;Max_cycle;Signal;HPM_P1;HPM_P2
2024/01/10 00:02:01;;;;;;;1999.90;999.90;;;-3.60;29.30;;;;;;4972782;28;20646;-73
2024/01/10 00:04:27;;;;;;;1999.90;999.90;;;-3.60;29.40;;;;;;4972398;28;20261;-73
2024/01/10 00:06:52;;;;;;;1999.90;999.90;;;-3.60;29.90;;;;;;4972786;28;20190;-73
2024/01/10 00:09:18;;;;;;;1999.90;999.90;;;-3.70;29.70;;;;;;4972624;28;20206;-73
2024/01/10 00:11:43;;;;;;;1999.90;999.90;;;-3.50;29.50;;;;;;4972735;28;20756;-73
2024/01/10 00:14:09;;;;;;;1999.90;999.90;;;-3.60;29.80;;;;;;4972447;28;20260;-73
2024/01/10 00:16:35;;;;;;;1999.90;999.90;;;-3.50;29.60;;;;;;4978712;28;20277;-73
2024/01/10 00:19:00;;;;;;;1999.90;999.90;;;-3.50;30.00;;;;;;4987768;28;20653;-73
2024/01/10 00:21:26;;;;;;;1999.90;999.90;;;-3.60;30.80;;;;;;4996035;28;20587;-73
2024/01/10 00:23:52;;;;;;;1999.90;999.90;;;-3.60;31.20;;;;;;4995624;28;20277;-73
2024/01/10 00:26:17;;;;;;;1999.90;999.90;;;-3.60;31.50;;;;;;4995831;28;20189;-73
2024/01/10 00:28:45;;;;;;;1999.90;999.90;;;-3.50;32.80;;;;;;4995731;28;20244;-73
2024/01/10 00:31:11;;;;;;;1999.90;999.90;;;-3.50;33.20;;;;;;4995786;28;20181;-73
2024/01/10 00:33:37;;;;;;;1999.90;999.90;;;-3.60;32.80;;;;;;4995297;28;20174;-73
2024/01/10 00:36:03;;;;;;;1999.90;999.90;;;-3.60;32.00;;;;;;4995509;28;20185;-73
2024/01/10 00:38:28;;;;;;;1999.90;999.90;;;-3.70;32.30;;;;;;4995682;28;20635;-73
2024/01/10 00:40:54;;;;;;;1999.90;999.90;;;-3.60;32.90;;;;;;4995577;28;20520;-73
2024/01/10 00:43:19;;;;;;;1999.90;999.90;;;-3.60;33.60;;;;;;4995441;28;20237;-73
2024/01/10 00:45:45;;;;;;;1999.90;999.90;;;-3.70;67.90;;;;;;4995434;28;20170;-73
2024/01/10 00:48:10;;;;;;;1999.90;999.90;;;-3.60;35.30;;;;;;4995361;28;20194;-73
2024/01/10 00:50:36;;;;;;;1999.90;999.90;;;-3.80;34.10;;;;;;4995498;28;20228;-73
2024/01/10 00:53:02;;;;;;;1999.90;999.90;;;-3.70;34.80;;;;;;4995052;28;20204;-73
2024/01/10 00:55:27;;;;;;;1999.90;999.90;;;-3.60;35.10;;;;;;4995278;28;20169;-73
2024/01/10 00:57:53;;;;;;;1999.90;999.90;;;-3.70;36.80;;;;;;4995221;28;20213;-73
2024/01/10 01:00:18;;;;;;;1999.90;999.90;;;-3.60;37.30;;;;;;4995301;28;20739;-73
2024/01/10 01:02:45;;;;;;;1999.90;999.90;;;-3.80;36.30;;;;;;4995119;28;20173;-73
2024/01/10 01:05:10;;;;;;;1999.90;999.90;;;-3.90;35.90;;;;;;4994924;28;20169;-73
2024/01/10 01:07:36;;;;;;;1999.90;999.90;;;-3.80;36.20;;;;;;4995047;28;20267;-73
2024/01/10 01:10:02;;;;;;;1999.90;999.90;;;-3.80;36.20;;;;;;4995037;28;20174;-73
2024/01/10 01:12:28;;;;;;;1999.90;999.90;;;-3.90;37.10;;;;;;4994957;28;20548;-73
2024/01/10 01:14:54;;;;;;;1999.90;999.90;;;-3.80;37.30;;;;;;4994637;28;20174;-72
2024/01/10 01:17:20;;;;;;;1999.90;999.90;;;-3.90;38.10;;;;;;4994696;28;20197;-72
2024/01/10 01:19:45;;;;;;;1999.90;999.90;;;-4.00;38.70;;;;;;4994866;28;20744;-73
2024/01/10 01:22:11;;;;;;;1999.90;999.90;;;-4.00;39.70;;;;;;4994768;28;20169;-71
2024/01/10 01:24:36;;;;;;;1999.90;999.90;;;-4.00;40.60;;;;;;4994636;28;20177;-72
2024/01/10 01:27:03;;;;;;;1999.90;999.90;;;-4.00;41.30;;;;;;4993802;28;20198;-72
2024/01/10 01:29:29;;;;;;;1999.90;999.90;;;-4.00;42.30;;;;;;4994639;28;20198;-72
2024/01/10 01:31:54;;;;;;;1999.90;999.90;;;-3.90;43.50;;;;;;4994554;28;20178;-72
2024/01/10 01:34:20;;;;;;;1999.90;999.90;;;-3.90;43.90;;;;;;4994389;28;20170;-72
2024/01/10 01:36:46;;;;;;;1999.90;999.90;;;-3.70;44.90;;;;;;4994490;28;20216;-73
2024/01/10 01:39:13;;;;;;;1999.90;999.90;;;-3.80;44.60;;;;;;4994586;28;20255;-72
2024/01/10 01:41:39;;;;;;;1999.90;999.90;;;-3.90;44.00;;;;;;4994621;28;20256;-73
2024/01/10 01:44:05;;;;;;;1999.90;999.90;;;-3.80;44.20;;;;;;4995609;28;20202;-73
2024/01/10 01:46:32;;;;;;;1999.90;999.90;;;-3.80;44.40;;;;;;4995626;28;20200;-73
2024/01/10 01:48:58;;;;;;;1999.90;999.90;;;-3.80;44.80;;;;;;4995245;28;20197;-73
2024/01/10 01:51:25;;;;;;;1999.90;999.90;;;-3.80;45.50;;;;;;4995246;28;20240;-71
2024/01/10 01:53:52;;;;;;;1999.90;999.90;;;-3.80;46.60;;;;;;4995047;28;20248;-73
2024/01/10 01:56:17;;;;;;;1999.90;999.90;;;-3.90;46.80;;;;;;4994990;28;20220;-73
2024/01/10 01:58:43;;;;;;;1999.90;999.90;;;-3.80;47.30;;;;;;4995173;28;20540;-73
2024/01/10 02:01:11;;;;;;;1999.90;999.90;;;-3.80;47.20;;;;;;4994775;28;20559;-73
2024/01/10 02:03:37;;;;;;;1999.90;999.90;;;-3.80;47.30;;;;;;4994556;28;20205;-73
2024/01/10 02:06:03;;;;;;;1999.90;999.90;;;-3.80;47.00;;;;;;4994325;28;20189;-73
2024/01/10 02:08:31;;;;;;;1999.90;999.90;;;-3.80;47.60;;;;;;4994371;28;20193;-73
2024/01/10 02:10:57;;;;;;;1999.90;999.90;;;-3.80;48.60;;;;;;4994304;28;20205;-74
2024/01/10 02:13:23;;;;;;;1999.90;999.90;;;-3.80;48.70;;;;;;4993813;28;20162;-72
2024/01/10 02:15:48;;;;;;;1999.90;999.90;;;-3.80;88.00;;;;;;4993723;28;20317;-73
2024/01/10 02:18:14;;;;;;;1999.90;999.90;;;-3.80;50.80;;;;;;4993861;28;20185;-74
2024/01/10 02:20:42;;;;;;;1999.90;999.90;;;-3.80;51.00;;;;;;4993852;28;20174;-73
2024/01/10 02:23:08;;;;;;;1999.90;999.90;;;-3.80;53.50;;;;;;4993445;28;20544;-74
2024/01/10 02:25:34;;;;;;;1999.90;999.90;;;-4.00;52.50;;;;;;4993577;28;20180;-73
2024/01/10 02:28:00;;;;;;;1999.90;999.90;;;-3.90;53.10;;;;;;4993486;28;20248;-73
2024/01/10 02:30:25;;;;;;;1999.90;999.90;;;-3.90;54.70;;;;;;4993448;28;20169;-73
2024/01/10 02:32:51;;;;;;;1999.90;999.90;;;-3.90;55.00;;;;;;4993403;28;20257;-73
2024/01/10 02:35:17;;;;;;;1999.90;999.90;;;-3.90;56.00;;;;;;4993189;28;20166;-71
2024/01/10 02:37:43;;;;;;;1999.90;999.90;;;-4.00;56.50;;;;;;4993417;28;20226;-73
2024/01/10 02:40:09;;;;;;;1999.90;999.90;;;-4.00;55.90;;;;;;4993356;28;20178;-73
2024/01/10 02:42:35;;;;;;;1999.90;999.90;;;-4.00;55.30;;;;;;4993361;28;20415;-73
2024/01/10 02:45:01;;;;;;;1999.90;999.90;;;-4.00;57.40;;;;;;4992991;28;20178;-72
2024/01/10 02:47:26;;;;;;;1999.90;999.90;;;-3.90;57.50;;;;;;4993178;28;20728;-73
2024/01/10 02:49:52;;;;;;;1999.90;999.90;;;-4.00;57.30;;;;;;4993257;28;20245;-73
2024/01/10 02:52:19;;;;;;;1999.90;999.90;;;-4.00;58.10;;;;;;4993004;28;20579;-72
2024/01/10 02:54:45;;;;;;;1999.90;999.90;;;-4.00;60.20;;;;;;4992932;28;20204;-73
2024/01/10 02:57:11;;;;;;;1999.90;999.90;;;-4.10;61.80;;;;;;4993019;28;20858;-73
2024/01/10 02:59:36;;;;;;;1999.90;999.90;;;-4.20;66.70;;;;;;4993008;28;20492;-73
2024/01/10 03:02:02;;;;;;;1999.90;999.90;;;-4.30;70.40;;;;;;4993029;28;20166;-72
2024/01/10 03:04:28;;;;;;;1999.90;999.90;;;-4.20;72.00;;;;;;4992787;28;20551;-72
2024/01/10 03:06:53;;;;;;;1999.90;999.90;;;-4.30;72.80;;;;;;4992834;28;20472;-71
2024/01/10 03:09:19;;;;;;;1999.90;999.90;;;-4.30;99.90;;;;;;4992808;28;20197;-73
2024/01/10 03:11:44;;;;;;;1999.90;999.90;;;-4.30;78.80;;;;;;4992896;28;20168;-72
2024/01/10 03:14:10;;;;;;;1999.90;999.90;;;-4.20;78.70;;;;;;4992601;28;20240;-72
2024/01/10 03:16:37;;;;;;;1999.90;999.90;;;-4.30;80.20;;;;;;4992782;28;20572;-73
2024/01/10 03:19:03;;;;;;;1999.90;999.90;;;-4.30;81.10;;;;;;4992814;28;20173;-72
2024/01/10 03:21:29;;;;;;;1999.90;999.90;;;-4.30;82.50;;;;;;4992907;28;20568;-73
2024/01/10 03:23:56;;;;;;;1999.90;999.90;;;-4.40;82.10;;;;;;4992689;28;20174;-72
2024/01/10 03:26:22;;;;;;;1999.90;999.90;;;-4.30;82.80;;;;;;4992640;28;20448;-72
2024/01/10 03:28:47;;;;;;;1999.90;999.90;;;-4.30;82.20;;;;;;4992610;28;20201;-71
2024/01/10 03:31:13;;;;;;;1999.90;999.90;;;-4.20;80.90;;;;;;4992783;28;20471;-70
2024/01/10 03:33:38;;;;;;;1999.90;999.90;;;-4.10;79.90;;;;;;4992364;28;20186;-71
2024/01/10 03:36:05;;;;;;;1999.90;999.90;;;-4.20;77.80;;;;;;4992595;28;20193;-71
2024/01/10 03:38:30;;;;;;;1999.90;999.90;;;-4.30;78.20;;;;;;4992563;28;20636;-71
2024/01/10 03:40:56;;;;;;;1999.90;999.90;;;-4.20;76.40;;;;;;4992536;28;20206;-71
2024/01/10 03:43:22;;;;;;;1999.90;999.90;;;-4.30;75.30;;;;;;4992133;28;20641;-71
2024/01/10 03:45:48;;;;;;;1999.90;999.90;;;-4.40;99.90;;;;;;4992358;28;20412;-71
2024/01/10 03:48:13;;;;;;;1999.90;999.90;;;-4.30;72.90;;;;;;4992374;28;20288;-71
2024/01/10 03:50:39;;;;;;;1999.90;999.90;;;-4.30;70.30;;;;;;4993905;28;20625;-71
2024/01/10 03:53:04;;;;;;;1999.90;999.90;;;-4.20;69.00;;;;;;4996149;28;20220;-71
2024/01/10 03:55:30;;;;;;;1999.90;999.90;;;-4.30;64.40;;;;;;4996377;28;20571;-71
2024/01/10 03:57:56;;;;;;;1999.90;999.90;;;-4.30;63.80;;;;;;4996247;28;20194;-70
2024/01/10 04:00:22;;;;;;;1999.90;999.90;;;-4.30;63.90;;;;;;4996318;28;20567;-71
2024/01/10 04:02:47;;;;;;;1999.90;999.90;;;-4.20;63.70;;;;;;4996262;28;20178;-71
2024/01/10 04:05:13;;;;;;;1999.90;999.90;;;-4.10;61.90;;;;;;4995979;28;20170;-71
2024/01/10 04:07:44;;;;;;;1999.90;999.90;;;-4.10;60.10;;;;;;4996049;28;20289;-71
2024/01/10 04:10:13;;;;;;;1999.90;999.90;;;-4.10;59.10;;;;;;4996089;28;20174;-71
2024/01/10 04:12:39;;;;;;;1999.90;999.90;;;-4.20;58.50;;;;;;4996242;28;20621;-70
2024/01/10 04:15:06;;;;;;;1999.90;999.90;;;-4.30;58.80;;;;;;4995822;28;20204;-71
2024/01/10 04:17:31;;;;;;;1999.90;999.90;;;-4.30;57.70;;;;;;4995874;28;20194;-70
2024/01/10 04:19:57;;;;;;;1999.90;999.90;;;-4.30;59.70;;;;;;4995971;28;20540;-71
2024/01/10 04:22:26;;;;;;;1999.90;999.90;;;-4.30;59.70;;;;;;4995980;28;20190;-71
2024/01/10 04:24:52;;;;;;;1999.90;999.90;;;-4.30;60.80;;;;;;4996143;28;20170;-71
2024/01/10 04:27:20;;;;;;;1999.90;999.90;;;-4.30;65.50;;;;;;4996504;28;20208;-72
2024/01/10 04:29:46;;;;;;;1999.90;999.90;;;-4.20;60.90;;;;;;4996868;28;20413;-72
2024/01/10 04:32:11;;;;;;;1999.90;999.90;;;-4.40;63.70;;;;;;4996585;28;20544;-71
2024/01/10 04:34:37;;;;;;;1999.90;999.90;;;-4.30;65.80;;;;;;4996681;28;20534;-71
2024/01/10 04:37:03;;;;;;;1999.90;999.90;;;-4.30;68.10;;;;;;4997257;28;20182;-71
2024/01/10 04:39:29;;;;;;;1999.90;999.90;;;-4.50;71.20;;;;;;4997291;28;20640;-72
2024/01/10 04:41:55;;;;;;;1999.90;999.90;;;-4.40;72.70;;;;;;4997347;28;20415;-72
2024/01/10 04:44:20;;;;;;;1999.90;999.90;;;-4.40;72.40;;;;;;4996710;28;20170;-72
2024/01/10 04:46:46;;;;;;;1999.90;999.90;;;-4.50;72.90;;;;;;4997094;28;20200;-72
2024/01/10 04:49:11;;;;;;;1999.90;999.90;;;-4.50;76.40;;;;;;4996982;28;20608;-71
2024/01/10 04:51:37;;;;;;;1999.90;999.90;;;-4.50;77.70;;;;;;4996305;28;20209;-71
2024/01/10 04:54:03;;;;;;;1999.90;999.90;;;-4.40;80.80;;;;;;4995962;28;20165;-72
2024/01/10 04:56:29;;;;;;;1999.90;999.90;;;-4.30;78.80;;;;;;4996023;28;20930;-71
2024/01/10 04:58:54;;;;;;;1999.90;999.90;;;-4.40;79.00;;;;;;4995614;28;20830;-72
2024/01/10 05:01:20;;;;;;;1999.90;999.90;;;-4.50;78.60;;;;;;4995113;28;20165;-72
2024/01/10 05:03:45;;;;;;;1999.90;999.90;;;-4.60;79.70;;;;;;4995332;28;20221;-71
2024/01/10 05:06:11;;;;;;;1999.90;999.90;;;-4.60;80.60;;;;;;4967449;28;20280;-72
2024/01/10 05:08:37;;;;;;;1999.90;999.90;;;-4.60;83.40;;;;;;4975892;28;20340;-72
2024/01/10 05:11:02;;;;;;;1999.90;999.90;;;-4.50;84.80;;;;;;4975829;28;20173;-72
2024/01/10 05:13:28;;;;;;;1999.90;999.90;;;-4.00;83.10;;;;;;4975216;28;20246;-71
2024/01/10 05:18:22;;;;;;;1999.90;999.90;;;-4.60;76.70;;;;;;4997581;28;20212;-68
2024/01/10 05:20:47;;;;;;;1999.90;999.90;;;-4.50;81.20;;;;;;4994917;28;20174;-67
2024/01/10 05:23:13;;;;;;;1999.90;999.90;;;-4.60;75.40;;;;;;4994500;28;20170;-67
2024/01/10 05:25:39;;;;;;;1999.90;999.90;;;-4.70;77.10;;;;;;4994548;28;20173;-68
2024/01/10 05:28:05;;;;;;;1999.90;999.90;;;-4.80;80.90;;;;;;4994509;28;20255;-68
2024/01/10 05:30:31;;;;;;;1999.90;999.90;;;-5.00;78.10;;;;;;5009609;28;20667;-67
2024/01/10 05:32:58;;;;;;;1999.90;999.90;;;-4.90;81.40;;;;;;4994336;28;20198;-67
2024/01/10 05:35:25;;;;;;;1999.90;999.90;;;-5.00;81.90;;;;;;4994448;28;20228;-67
2024/01/10 05:37:51;;;;;;;1999.90;999.90;;;-5.00;84.30;;;;;;4994422;28;20276;-67
2024/01/10 05:40:18;;;;;;;1999.90;999.90;;;-5.00;88.30;;;;;;4994421;28;20184;-67
2024/01/10 05:42:44;;;;;;;1999.90;999.90;;;-5.00;90.20;;;;;;4994532;28;20227;-68
2024/01/10 05:45:09;;;;;;;1999.90;999.90;;;-5.00;92.00;;;;;;4994152;28;20649;-68
2024/01/10 05:47:35;;;;;;;1999.90;999.90;;;-5.20;91.50;;;;;;4994129;28;20472;-68
2024/01/10 05:50:01;;;;;;;1999.90;999.90;;;-5.00;92.60;;;;;;4994346;28;20553;-68
2024/01/10 05:52:27;;;;;;;1999.90;999.90;;;-5.00;93.40;;;;;;4994345;28;20185;-67
2024/01/10 05:54:53;;;;;;;1999.90;999.90;;;-4.90;92.80;;;;;;4994002;28;20174;-67
2024/01/10 05:57:19;;;;;;;1999.90;999.90;;;-5.00;93.10;;;;;;4994083;28;20676;-67
2024/01/10 05:59:44;;;;;;;1999.90;999.90;;;-5.00;92.80;;;;;;4983731;28;20190;-67
2024/01/10 06:02:10;;;;;;;1999.90;999.90;;;-5.00;93.10;;;;;;4989924;28;20174;-68
2024/01/10 06:04:35;;;;;;;1999.90;999.90;;;-5.00;93.80;;;;;;4973527;28;20174;-68
2024/01/10 06:07:01;;;;;;;1999.90;999.90;;;-5.10;94.60;;;;;;4974890;28;20241;-68
2024/01/10 06:09:27;;;;;;;1999.90;999.90;;;-4.80;93.80;;;;;;4974915;28;20648;-68
2024/01/10 06:11:52;;;;;;;1999.90;999.90;;;-4.80;94.40;;;;;;4974878;28;20174;-68
2024/01/10 06:14:18;;;;;;;1999.90;999.90;;;-4.90;92.10;;;;;;4974225;28;20438;-68
2024/01/10 06:16:47;;;;;;;1999.90;999.90;;;-5.00;92.30;;;;;;4974634;28;20292;-67
2024/01/10 06:19:13;;;;;;;1999.90;999.90;;;-5.10;93.40;;;;;;4975006;28;20271;-67
2024/01/10 06:21:39;;;;;;;1999.90;999.90;;;-5.00;95.60;;;;;;4974786;28;20257;-67
2024/01/10 06:24:05;;;;;;;1999.90;999.90;;;-4.90;95.60;;;;;;4974441;28;20193;-68
2024/01/10 06:26:30;;;;;;;1999.90;999.90;;;-4.80;95.80;;;;;;4974477;28;20187;-68
2024/01/10 06:28:56;;;;;;;1999.90;999.90;;;-5.00;96.20;;;;;;4974603;28;20504;-68
2024/01/10 06:31:21;;;;;;;1999.90;999.90;;;-4.70;96.60;;;;;;4974634;28;20173;-67
2024/01/10 06:33:47;;;;;;;1999.90;999.90;;;-4.70;95.40;;;;;;4974392;28;20175;-67
2024/01/10 06:36:13;;;;;;;1999.90;999.90;;;-4.60;93.50;;;;;;4974557;28;20685;-67
2024/01/10 06:38:39;;;;;;;1999.90;999.90;;;-4.70;93.40;;;;;;4974490;28;20434;-67
2024/01/10 06:41:09;;;;;;;1999.90;999.90;;;-4.70;93.40;;;;;;4974561;28;20432;-69
2024/01/10 06:43:36;;;;;;;1999.90;999.90;;;-4.70;95.20;;;;;;4973883;28;20171;-70
2024/01/10 06:46:03;;;;;;;1999.90;999.90;;;-4.70;99.90;;;;;;4973765;28;20638;-70
2024/01/10 06:48:29;;;;;;;1999.90;999.90;;;-4.70;92.60;;;;;;4973673;28;20212;-70
2024/01/10 06:50:55;;;;;;;1999.90;999.90;;;-4.80;90.60;;;;;;4973833;28;20257;-69
2024/01/10 06:53:21;;;;;;;1999.90;999.90;;;-4.90;91.60;;;;;;4973512;28;20166;-70
2024/01/10 06:55:46;;;;;;;1999.90;999.90;;;-4.80;93.90;;;;;;4973622;28;20717;-70
2024/01/10 06:58:12;;;;;;;1999.90;999.90;;;-4.70;94.10;;;;;;4973610;28;20190;-70
2024/01/10 07:00:38;;;;;;;1999.90;999.90;;;-4.70;95.90;;;;;;4973656;28;20525;-70
2024/01/10 07:03:04;;;;;;;1999.90;999.90;;;-4.70;95.00;;;;;;4972255;28;20174;-70
2024/01/10 07:05:31;;;;;;;1999.90;999.90;;;-4.60;93.90;;;;;;4973629;28;20182;-71
2024/01/10 07:07:57;;;;;;;1999.90;999.90;;;-4.70;93.30;;;;;;4973588;28;20636;-70
2024/01/10 07:10:27;;;;;;;1999.90;999.90;;;-4.80;91.30;;;;;;4974092;28;20201;-72
2024/01/10 07:12:53;;;;;;;1999.90;999.90;;;-4.80;91.40;;;;;;4974502;28;20167;-70
2024/01/10 07:15:19;;;;;;;1999.90;999.90;;;-4.80;92.40;;;;;;4974003;28;20174;-71
2024/01/10 07:17:45;;;;;;;1999.90;999.90;;;-4.90;92.50;;;;;;4974271;28;20209;-71
2024/01/10 07:20:12;;;;;;;1999.90;999.90;;;-4.90;91.50;;;;;;4974348;28;20540;-70
2024/01/10 07:22:41;;;;;;;1999.90;999.90;;;-4.80;91.80;;;;;;4974197;28;20174;-71
2024/01/10 07:25:07;;;;;;;1999.90;999.90;;;-4.80;92.60;;;;;;4972951;28;20281;-70
2024/01/10 07:27:33;;;;;;;1999.90;999.90;;;-4.60;92.80;;;;;;4973742;28;20541;-71
2024/01/10 07:29:59;;;;;;;1999.90;999.90;;;-4.70;92.20;;;;;;4974176;28;20177;-71
2024/01/10 07:32:24;;;;;;;1999.90;999.90;;;-4.70;91.90;;;;;;4973207;28;20625;-71
2024/01/10 07:34:50;;;;;;;1999.90;999.90;;;-4.70;89.90;;;;;;4973020;28;20633;-70
2024/01/10 07:37:20;;;;;;;1999.90;999.90;;;-4.70;91.70;;;;;;4973441;28;20185;-71
2024/01/10 07:39:46;;;;;;;1999.90;999.90;;;-4.80;92.60;;;;;;4973165;28;20177;-71
2024/01/10 07:42:12;;;;;;;1999.90;999.90;;;-4.60;91.10;;;;;;4988450;28;20207;-71
2024/01/10 07:44:37;;;;;;;1999.90;999.90;;;-4.50;90.10;;;;;;4973206;28;20290;-69
2024/01/10 07:47:03;;;;;;;1999.90;999.90;;;-4.70;81.70;;;;;;4972970;28;20190;-69
2024/01/10 07:49:29;;;;;;;1999.90;999.90;;;-4.90;81.20;;;;;;4973211;28;20201;-69
2024/01/10 07:51:55;;;;;;;1999.90;999.90;;;-4.90;89.40;;;;;;4973185;28;20174;-68
2024/01/10 07:54:21;;;;;;;1999.90;999.90;;;-4.90;92.20;;;;;;4972867;28;20544;-68
2024/01/10 07:56:46;;;;;;;1999.90;999.90;;;-4.90;92.30;;;;;;4973114;28;20724;-67
2024/01/10 07:59:15;;;;;;;1999.90;999.90;;;-4.90;92.50;;;;;;4973173;28;20170;-69
2024/01/10 08:01:44;;;;;;;1999.90;999.90;;;-4.80;94.20;;;;;;4973279;28;20561;-68
2024/01/10 08:04:10;;;;;;;1999.90;999.90;;;-4.80;93.70;;;;;;4973398;28;20641;-69
2024/01/10 08:06:35;;;;;;;1999.90;999.90;;;-4.80;93.10;;;;;;4973409;28;20293;-68
2024/01/10 08:09:04;;;;;;;1999.90;999.90;;;-4.80;91.60;;;;;;4973637;28;20202;-69
2024/01/10 08:11:29;;;;;;;1999.90;999.90;;;-4.80;92.20;;;;;;4974540;28;20228;-69
2024/01/10 08:13:55;;;;;;;1999.90;999.90;;;-4.80;92.50;;;;;;4974658;28;20194;-69
2024/01/10 08:16:21;;;;;;;1999.90;999.90;;;-4.70;91.90;;;;;;4974421;28;20237;-67
2024/01/10 08:18:46;;;;;;;1999.90;999.90;;;-4.70;91.50;;;;;;4975102;28;20193;-69
2024/01/10 08:21:12;;;;;;;1999.90;999.90;;;-4.60;91.70;;;;;;4976034;28;20174;-69
2024/01/10 08:23:38;;;;;;;1999.90;999.90;;;-4.50;92.50;;;;;;4975550;28;20548;-68
2024/01/10 08:26:08;;;;;;;1999.90;999.90;;;-4.40;99.90;;;;;;4975533;28;20245;-68
2024/01/10 08:28:33;;;;;;;1999.90;999.90;;;-4.50;91.70;;;;;;4975367;28;20712;-69
2024/01/10 08:30:59;;;;;;;1999.90;999.90;;;-4.50;91.50;;;;;;4973944;28;20175;-70
2024/01/10 08:33:25;;;;;;;1999.90;999.90;;;-4.40;90.70;;;;;;4974891;28;20175;-72
2024/01/10 08:35:50;;;;;;;1999.90;999.90;;;-4.40;90.80;;;;;;4973649;28;20206;-71
2024/01/10 08:38:16;;;;;;;1999.90;999.90;;;-4.40;90.10;;;;;;4977803;28;20178;-71
2024/01/10 08:40:42;;;;;;;1999.90;999.90;;;-4.30;90.60;;;;;;4978478;28;20230;-72
2024/01/10 08:43:07;;;;;;;1999.90;999.90;;;-4.30;90.70;;;;;;4992443;28;20178;-71
2024/01/10 08:45:33;;;;;;;1999.90;999.90;;;-4.30;88.10;;;;;;4977460;28;20182;-72
2024/01/10 08:47:59;;;;;;;1999.90;999.90;;;-4.10;87.10;;;;;;4977063;28;20701;-72
2024/01/10 08:50:24;;;;;;;1999.90;999.90;;;-4.20;82.80;;;;;;4976971;28;20166;-71
2024/01/10 08:52:50;;;;;;;1999.90;999.90;;;-4.10;81.50;;;;;;4976772;28;20174;-71
2024/01/10 08:55:16;;;;;;;1999.90;999.90;;;-4.10;82.00;;;;;;4976571;28;20540;-71
2024/01/10 08:57:41;;;;;;;1999.90;999.90;;;-4.10;82.30;;;;;;4976516;28;20206;-71
2024/01/10 09:00:11;;;;;;;1999.90;999.90;;;-4.10;82.80;;;;;;4976241;28;20547;-71
2024/01/10 09:02:37;;;;;;;1999.90;999.90;;;-4.00;81.20;;;;;;4976402;28;20245;-72
2024/01/10 09:05:04;;;;;;;1999.90;999.90;;;-4.10;83.20;;;;;;4975917;28;20190;-72
2024/01/10 09:07:30;;;;;;;1999.90;999.90;;;-4.00;83.10;;;;;;4975790;28;20700;-70
2024/01/10 09:09:55;;;;;;;1999.90;999.90;;;-4.00;81.50;;;;;;4975720;28;20174;-71
2024/01/10 09:12:21;;;;;;;1999.90;999.90;;;-4.00;82.10;;;;;;4975709;28;20259;-72
2024/01/10 09:14:47;;;;;;;1999.90;999.90;;;-4.00;82.10;;;;;;4975502;28;20245;-72
2024/01/10 09:17:12;;;;;;;1999.90;999.90;;;-4.10;83.60;;;;;;4975461;28;20209;-71
2024/01/10 09:19:38;;;;;;;1999.90;999.90;;;-3.90;85.60;;;;;;5006165;28;20173;-72
2024/01/10 09:22:04;;;;;;;1999.90;999.90;;;-3.90;86.70;;;;;;4996630;28;20173;-72
2024/01/10 09:24:29;;;;;;;1999.90;999.90;;;-3.90;87.40;;;;;;5001442;28;20181;-72
2024/01/10 09:26:55;;;;;;;1999.90;999.90;;;-3.70;86.80;;;;;;4997886;28;20210;-72
2024/01/10 09:29:21;;;;;;;1999.90;999.90;;;-3.70;83.80;;;;;;4998880;28;20201;-72
2024/01/10 09:31:47;;;;;;;1999.90;999.90;;;-3.60;84.30;;;;;;4995513;28;20536;-72
2024/01/10 09:34:12;;;;;;;1999.90;999.90;;;-3.50;85.20;;;;;;4975711;28;20166;-71
2024/01/10 09:36:38;;;;;;;1999.90;999.90;;;-3.40;87.50;;;;;;4995410;28;20583;-70
2024/01/10 09:39:05;;;;;;;1999.90;999.90;;;-3.30;86.50;;;;;;4975659;28;20253;-72
2024/01/10 09:41:36;;;;;;;1999.90;999.90;;;-3.30;84.50;;;;;;4997499;28;20555;-72
2024/01/10 09:44:04;;;;;;;1999.90;999.90;;;-3.10;81.80;;;;;;4987183;28;20211;-72
2024/01/10 09:46:32;;;;;;;1999.90;999.90;;;-3.00;77.00;;;;;;5007776;28;20201;-71
2024/01/10 09:48:59;;;;;;;1999.90;999.90;;;-3.00;75.80;;;;;;5013423;28;20451;-72
2024/01/10 09:51:26;;;;;;;1999.90;999.90;;;-2.90;71.60;;;;;;5017525;28;20166;-70
2024/01/10 09:53:53;;;;;;;1999.90;999.90;;;-2.90;70.20;;;;;;5017718;28;20165;-74
2024/01/10 09:56:19;;;;;;;1999.90;999.90;;;-2.80;64.60;;;;;;5015185;28;20193;-70
2024/01/10 09:58:48;;;;;;;1999.90;999.90;;;-2.70;64.00;;;;;;5013683;28;20547;-70
2024/01/10 10:01:13;;;;;;;1999.90;999.90;;;-2.40;61.70;;;;;;5000513;28;20178;-71
2024/01/10 10:03:44;;;;;;;1999.90;999.90;;;-2.70;59.40;;;;;;4990798;28;20549;-73
2024/01/10 10:06:10;;;;;;;1999.90;999.90;;;-2.80;93.40;;;;;;4993978;28;20417;-74
2024/01/10 10:08:35;;;;;;;1999.90;999.90;;;-2.70;57.50;;;;;;4992674;28;20204;-71
2024/01/10 10:11:02;;;;;;;1999.90;999.90;;;-2.60;56.10;;;;;;4992173;28;20516;-71
2024/01/10 10:13:29;;;;;;;1999.90;999.90;;;-2.50;56.10;;;;;;4992039;28;20177;-70
2024/01/10 10:16:04;;;;;;;1999.90;999.90;;;-2.40;92.00;;;;;;4992802;28;20552;-75
2024/01/10 10:18:31;;;;;;;1999.90;999.90;;;-2.40;56.60;;;;;;4994525;28;20205;-72
2024/01/10 10:21:11;;;;;;;1999.90;999.90;;;-2.30;55.50;;;;;;4993070;28;20166;-70
2024/01/10 10:23:42;;;;;;;1999.90;999.90;;;-2.20;54.20;;;;;;4992831;28;20687;-71
2024/01/10 10:26:14;;;;;;;1999.90;999.90;;;-1.90;88.60;;;;;;4993315;28;20213;-70
2024/01/10 10:28:40;;;;;;;1999.90;999.90;;;-2.00;51.00;;;;;;4993230;28;20194;-70
2024/01/10 10:31:07;;;;;;;1999.90;999.90;;;-2.00;49.90;;;;;;4992561;28;20181;-70
2024/01/10 10:33:33;;;;;;;1999.90;999.90;;;-2.00;46.20;;;;;;4992888;28;20245;-70
2024/01/10 10:35:59;;;;;;;1999.90;999.90;;;-2.00;77.00;;;;;;4992898;28;20260;-71
2024/01/10 10:38:24;;;;;;;1999.90;999.90;;;-2.00;43.20;;;;;;4992598;28;20305;-71
2024/01/10 10:40:51;;;;;;;1999.90;999.90;;;-2.00;42.80;;;;;;4992807;28;20649;-71
2024/01/10 10:43:19;;;;;;;1999.90;999.90;;;-2.00;43.10;;;;;;4993603;28;20173;-71
2024/01/10 10:45:49;;;;;;;1999.90;999.90;;;-1.90;44.90;;;;;;4993600;28;20600;-71
2024/01/10 10:48:22;;;;;;;1999.90;999.90;;;-1.70;45.30;;;;;;4993759;28;20752;-71
2024/01/10 10:51:08;;;;;;;1999.90;999.90;;;-1.60;45.30;;;;;;4997583;28;20186;-69
2024/01/10 10:53:35;;;;;;;1999.90;999.90;;;-1.60;43.00;;;;;;4994982;28;20193;-71
2024/01/10 10:56:04;;;;;;;1999.90;999.90;;;-1.20;71.90;;;;;;4993769;28;20173;-72
2024/01/10 10:58:37;;;;;;;1999.90;999.90;;;-1.20;39.40;;;;;;4993368;28;20173;-70
2024/01/10 11:01:07;;;;;;;1999.90;999.90;;;-1.20;38.30;;;;;;4992979;28;20260;-72
2024/01/10 11:03:36;;;;;;;1999.90;999.90;;;-1.20;36.50;;;;;;4994464;28;20169;-71
2024/01/10 11:06:03;;;;;;;1999.90;999.90;;;-1.10;64.80;;;;;;4995634;28;20170;-71
2024/01/10 11:08:35;;;;;;;1999.90;999.90;;;-1.10;33.40;;;;;;4995781;28;20284;-72
2024/01/10 11:11:04;;;;;;;1999.90;999.90;;;-1.00;29.90;;;;;;4998776;28;20185;-72
2024/01/10 11:13:45;;;;;;;1999.90;999.90;;;-0.70;34.20;;;;;;4997005;28;20240;-70
2024/01/10 11:16:49;;;;;;;1999.90;999.90;;;-0.70;68.10;;;;;;4993006;28;20586;-68
2024/01/10 11:19:37;;;;;;;1999.90;999.90;;;-0.50;36.40;;;;;;5005593;28;20200;-66
2024/01/10 11:22:24;;;;;;;1999.90;999.90;;;-0.50;31.30;;;;;;4993041;28;20169;-70
2024/01/10 11:24:50;;;;;;;1999.90;999.90;;;-0.30;32.50;;;;;;4992230;28;20704;-66
2024/01/10 11:27:16;;;;;;;1999.90;999.90;;;-0.10;33.40;;;;;;4992341;28;20193;-66
2024/01/10 11:29:45;;;;;;;1999.90;999.90;;;0.00;31.80;;;;;;4992185;28;20479;-66
2024/01/10 11:32:18;;;;;;;1999.90;999.90;;;0.20;30.40;;;;;;4992186;28;20171;-70
2024/01/10 11:34:59;;;;;;;1999.90;999.90;;;0.20;27.40;;;;;;4991795;28;20196;-69
2024/01/10 11:37:45;;;;;;;1999.90;999.90;;;0.10;26.00;;;;;;4997777;28;20205;-69
2024/01/10 11:40:12;;;;;;;1999.90;999.90;;;0.20;24.80;;;;;;4984425;28;20556;-70
2024/01/10 11:42:45;;;;;;;1999.90;999.90;;;0.00;24.30;;;;;;4992195;28;20174;-69
2024/01/10 11:45:31;;;;;;;1999.90;999.90;;;0.10;23.50;;;;;;4991325;28;20166;-68
2024/01/10 11:48:00;;;;;;;1999.90;999.90;;;-0.10;22.30;;;;;;4991903;28;20718;-70
2024/01/10 11:50:27;;;;;;;1999.90;999.90;;;0.10;21.40;;;;;;4992042;28;20199;-69
2024/01/10 11:52:53;;;;;;;1999.90;999.90;;;0.20;20.10;;;;;;4991566;28;20162;-69
2024/01/10 11:55:48;;;;;;;1999.90;999.90;;;0.10;19.10;;;;;;4991655;28;20193;-68
2024/01/10 11:58:13;;;;;;;1999.90;999.90;;;-0.10;16.20;;;;;;4991891;28;20185;-69
2024/01/10 12:00:42;;;;;;;1999.90;999.90;;;0.10;18.50;;;;;;4991479;28;20699;-69